createdAt,value
2018-12-18T00:02:18.246Z,28.75
2018-12-18T00:04:46.534Z,29.67
2018-12-18T00:07:14.758Z,27.25
2018-12-18T00:09:43.011Z,25.85
2018-12-18T00:12:11.323Z,21.82
2018-12-18T00:14:39.636Z,25.15
2018-12-18T00:17:07.892Z,26.37
2018-12-18T00:19:36.147Z,28.20
2018-12-18T00:22:05.036Z,26.15
2018-12-18T00:24:33.215Z,26.10
2018-12-18T00:27:01.564Z,24.95
2018-12-18T00:29:29.935Z,27.52
2018-12-18T00:31:58.139Z,27.73
2018-12-18T00:34:26.418Z,20.70
2018-12-18T00:36:54.676Z,17.02
2018-12-18T00:39:22.892Z,24.15
2018-12-18T00:41:53.042Z,24.10
2018-12-18T00:44:21.247Z,25.65
2018-12-18T00:46:49.412Z,28.32
2018-12-18T00:49:17.643Z,26.55
2018-12-18T00:51:45.889Z,26.87
2018-12-18T00:54:14.172Z,27.58
2018-12-18T00:56:42.437Z,26.70
2018-12-18T00:59:10.696Z,25.52
2018-12-18T01:01:38.866Z,26.10
2018-12-18T01:04:07.190Z,24.70
2018-12-18T01:06:35.332Z,26.85
2018-12-18T01:09:04.722Z,27.02
2018-12-18T01:11:33.021Z,23.42
2018-12-18T01:14:01.333Z,24.70
2018-12-18T01:16:29.693Z,22.48
2018-12-18T01:18:57.940Z,20.52
2018-12-18T01:21:26.317Z,21.45
2018-12-18T01:23:54.487Z,23.05
2018-12-18T01:26:22.720Z,21.97
2018-12-18T01:28:50.925Z,20.93
2018-12-18T01:31:19.091Z,23.25
2018-12-18T01:33:47.381Z,21.17
2018-12-18T01:36:15.599Z,20.20
2018-12-18T01:38:43.758Z,21.30
2018-12-18T01:41:11.954Z,20.70
2018-12-18T01:43:40.216Z,19.93
2018-12-18T01:46:08.517Z,20.12
2018-12-18T01:48:36.737Z,20.92
2018-12-18T01:51:04.957Z,19.35
2018-12-18T01:53:33.179Z,19.82
2018-12-18T01:56:01.364Z,20.13
2018-12-18T01:58:29.919Z,21.57
2018-12-18T02:00:58.032Z,18.80
2018-12-18T02:03:26.230Z,19.70
2018-12-18T02:05:54.629Z,19.50
2018-12-18T02:08:22.772Z,19.50
2018-12-18T02:10:50.945Z,20.85
2018-12-18T02:13:19.264Z,19.17
2018-12-18T02:15:47.535Z,21.17
2018-12-18T02:18:15.735Z,21.07
2018-12-18T02:20:43.973Z,20.53
2018-12-18T02:23:12.211Z,20.15
2018-12-18T02:25:40.400Z,19.80
2018-12-18T02:28:08.639Z,19.87
2018-12-18T02:30:36.838Z,20.37
2018-12-18T02:33:05.079Z,21.00
2018-12-18T02:35:33.188Z,20.90
2018-12-18T02:38:01.403Z,19.70
2018-12-18T02:40:29.668Z,21.10
2018-12-18T02:42:57.934Z,21.20
2018-12-18T02:45:26.265Z,19.13
2018-12-18T02:47:54.459Z,21.53
2018-12-18T02:50:22.656Z,19.60
2018-12-18T02:52:50.986Z,21.20
2018-12-18T02:55:19.344Z,22.57
2018-12-18T02:57:47.731Z,20.93
2018-12-18T03:00:16.110Z,20.40
2018-12-18T03:02:44.407Z,20.40
2018-12-18T03:05:12.763Z,21.43
2018-12-18T03:07:41.102Z,20.90
2018-12-18T03:10:09.380Z,20.70
2018-12-18T03:12:37.895Z,22.23
2018-12-18T03:15:06.392Z,21.57
2018-12-18T03:17:34.712Z,21.33
2018-12-18T03:20:03.107Z,21.83
2018-12-18T03:22:31.540Z,20.73
2018-12-18T03:24:59.975Z,20.53
2018-12-18T03:27:28.328Z,21.60
2018-12-18T03:29:56.655Z,21.07
2018-12-18T03:32:29.214Z,22.53
2018-12-18T03:34:58.642Z,26.77
2018-12-18T03:37:26.944Z,26.30
2018-12-18T03:39:55.134Z,28.50
2018-12-18T03:42:23.488Z,26.60
2018-12-18T03:44:51.750Z,28.45
2018-12-18T03:47:20.046Z,26.50
2018-12-18T03:49:48.342Z,25.43
2018-12-18T03:52:16.631Z,28.02
2018-12-18T03:54:44.824Z,25.75
2018-12-18T03:57:13.143Z,25.60
2018-12-18T03:59:41.837Z,26.52
2018-12-18T04:02:10.488Z,29.12
2018-12-18T04:04:38.756Z,28.67
2018-12-18T04:07:06.994Z,28.35
2018-12-18T04:09:35.198Z,27.37
2018-12-18T04:12:11.471Z,28.25
2018-12-18T04:14:39.883Z,26.05
2018-12-18T04:17:08.152Z,27.17
2018-12-18T04:19:36.538Z,26.55
2018-12-18T04:22:05.350Z,25.52
2018-12-18T04:24:33.544Z,27.52
2018-12-18T04:27:01.818Z,26.87
2018-12-18T04:29:31.046Z,27.00
2018-12-18T04:31:59.300Z,26.05
2018-12-18T04:34:27.484Z,25.68
2018-12-18T04:36:55.716Z,24.90
2018-12-18T04:39:24.856Z,26.20
2018-12-18T04:41:53.018Z,26.30
2018-12-18T04:44:21.153Z,25.95
2018-12-18T04:46:49.416Z,25.57
2018-12-18T04:49:17.645Z,25.45
2018-12-18T04:51:45.831Z,27.42
2018-12-18T04:54:13.942Z,26.30
2018-12-18T04:56:42.159Z,25.45
2018-12-18T04:59:10.370Z,25.10
2018-12-18T05:01:38.618Z,26.60
2018-12-18T05:04:06.890Z,29.60
2018-12-18T05:06:35.114Z,26.85
2018-12-18T05:09:04.905Z,26.80
2018-12-18T05:11:33.152Z,26.23
2018-12-18T05:14:01.456Z,24.98
2018-12-18T05:16:29.740Z,24.40
2018-12-18T05:18:58.016Z,27.93
2018-12-18T05:21:26.303Z,26.25
2018-12-18T05:23:54.436Z,28.30
2018-12-18T05:26:22.708Z,27.07
2018-12-18T05:28:50.989Z,24.40
2018-12-18T05:31:19.259Z,26.10
2018-12-18T05:33:47.461Z,26.10
2018-12-18T05:36:15.665Z,22.37
2018-12-18T05:38:43.812Z,23.95
2018-12-18T05:41:11.946Z,26.50
2018-12-18T05:43:40.175Z,24.92
2018-12-18T05:46:08.323Z,24.92
2018-12-18T05:48:36.562Z,26.55
2018-12-18T05:51:04.859Z,24.55
2018-12-18T05:53:32.984Z,27.45
2018-12-18T05:56:01.279Z,26.17
2018-12-18T05:58:29.487Z,24.85
2018-12-18T06:00:58.091Z,25.80
2018-12-18T06:03:26.376Z,25.72
2018-12-18T06:05:54.620Z,24.87
2018-12-18T06:08:22.832Z,26.00
2018-12-18T06:10:51.133Z,23.67
2018-12-18T06:13:19.354Z,25.48
2018-12-18T06:15:47.493Z,26.75
2018-12-18T06:18:15.695Z,26.48
2018-12-18T06:20:43.979Z,24.27
2018-12-18T06:23:12.177Z,25.50
2018-12-18T06:25:40.459Z,22.82
2018-12-18T06:28:08.711Z,26.07
2018-12-18T06:30:36.986Z,25.00
2018-12-18T06:33:05.211Z,22.50
2018-12-18T06:35:33.544Z,23.95
2018-12-18T06:38:01.819Z,25.50
2018-12-18T06:40:30.272Z,25.70
2018-12-18T06:42:58.468Z,24.63
2018-12-18T06:45:26.671Z,22.20
2018-12-18T06:47:54.931Z,21.87
2018-12-18T06:50:23.228Z,19.48
2018-12-18T06:52:51.448Z,21.97
2018-12-18T06:55:19.711Z,21.50
2018-12-18T06:57:47.954Z,21.52
2018-12-18T07:00:16.251Z,20.62
2018-12-18T07:02:44.421Z,23.03
2018-12-18T07:05:16.714Z,22.33
2018-12-18T07:07:42.928Z,21.20
2018-12-18T07:10:11.170Z,20.80
2018-12-18T07:12:39.387Z,21.97
2018-12-18T07:15:07.656Z,21.33
2018-12-18T07:17:35.926Z,22.80
2018-12-18T07:20:04.607Z,21.90
2018-12-18T07:22:32.858Z,23.20
2018-12-18T07:25:01.106Z,22.03
2018-12-18T07:27:29.445Z,21.33
2018-12-18T07:29:57.689Z,25.27
2018-12-18T07:32:25.854Z,23.27
2018-12-18T07:34:54.156Z,23.47
2018-12-18T07:37:22.373Z,22.93
2018-12-18T07:39:50.617Z,23.03
2018-12-18T07:42:18.833Z,24.00
2018-12-18T07:44:47.112Z,24.73
2018-12-18T07:47:15.255Z,25.13
2018-12-18T07:49:43.438Z,26.87
2018-12-18T07:52:11.664Z,27.47
2018-12-18T07:54:39.802Z,27.17
2018-12-18T07:57:08.072Z,24.57
2018-12-18T07:59:36.275Z,25.50
2018-12-18T08:02:04.491Z,26.43
2018-12-18T08:04:32.802Z,26.00
2018-12-18T08:07:01.165Z,26.20
2018-12-18T08:09:29.459Z,22.60
2018-12-18T08:11:57.767Z,26.17
2018-12-18T08:14:26.096Z,24.70
2018-12-18T08:16:54.295Z,24.37
2018-12-18T08:19:22.540Z,25.80
2018-12-18T08:21:50.829Z,25.07
2018-12-18T08:24:19.416Z,23.60
2018-12-18T08:26:47.667Z,22.37
2018-12-18T08:29:15.812Z,24.40
2018-12-18T08:31:43.940Z,24.40
2018-12-18T08:34:12.231Z,24.43
2018-12-18T08:36:40.379Z,24.00
2018-12-18T08:39:09.472Z,21.80
2018-12-18T08:41:37.778Z,22.90
2018-12-18T08:44:06.035Z,22.27
2018-12-18T08:46:34.309Z,23.27
2018-12-18T08:49:02.537Z,22.53
2018-12-18T08:51:30.928Z,22.17
2018-12-18T08:53:59.165Z,23.43
2018-12-18T08:56:27.384Z,23.00
2018-12-18T08:58:55.603Z,24.30
2018-12-18T09:01:23.843Z,22.90
2018-12-18T09:03:52.059Z,23.10
2018-12-18T09:06:20.281Z,24.13
2018-12-18T09:08:48.467Z,22.00
2018-12-18T09:11:16.666Z,22.60
2018-12-18T09:13:44.795Z,22.03
2018-12-18T09:16:18.420Z,23.10
2018-12-18T09:18:46.597Z,22.60
2018-12-18T09:21:14.846Z,23.37
2018-12-18T09:23:43.104Z,23.43
2018-12-18T09:26:11.318Z,22.90
2018-12-18T09:28:39.573Z,23.90
2018-12-18T09:31:07.925Z,25.30
2018-12-18T09:33:36.173Z,24.43
2018-12-18T09:36:04.411Z,24.03
2018-12-18T09:38:37.984Z,24.40
2018-12-18T09:41:11.771Z,24.90
2018-12-18T09:43:45.430Z,23.40
2018-12-18T09:46:13.672Z,23.90
2018-12-18T09:48:41.908Z,26.10
2018-12-18T09:51:10.091Z,24.40
2018-12-18T09:53:38.373Z,25.90
2018-12-18T09:56:06.540Z,25.07
2018-12-18T09:58:34.783Z,25.13
2018-12-18T10:01:03.035Z,23.57
2018-12-18T10:03:33.669Z,30.23
2018-12-18T10:06:01.680Z,25.50
2018-12-18T10:08:29.851Z,25.87
2018-12-18T10:10:58.154Z,23.53
2018-12-18T10:13:26.383Z,33.83
2018-12-18T10:15:54.630Z,24.43
2018-12-18T10:18:22.889Z,24.03
2018-12-18T10:20:51.114Z,23.90
2018-12-18T10:23:19.336Z,23.90
2018-12-18T10:25:47.526Z,25.40
2018-12-18T10:28:15.749Z,29.60
2018-12-18T10:30:43.916Z,23.70
2018-12-18T10:33:12.185Z,22.50
2018-12-18T10:35:40.378Z,24.10
2018-12-18T10:38:08.672Z,23.93
2018-12-18T10:40:36.851Z,23.70
2018-12-18T10:43:05.066Z,23.40
2018-12-18T10:45:34.586Z,22.57
2018-12-18T10:48:02.881Z,22.53
2018-12-18T10:50:31.178Z,22.80
2018-12-18T10:52:59.461Z,23.17
2018-12-18T10:55:27.707Z,23.03
2018-12-18T10:57:55.909Z,24.37
2018-12-18T11:00:29.576Z,21.50
2018-12-18T11:02:57.843Z,23.43
2018-12-18T11:05:26.007Z,22.80
2018-12-18T11:07:54.201Z,23.03
2018-12-18T11:10:22.443Z,36.70
2018-12-18T11:12:56.087Z,25.33
2018-12-18T11:15:24.332Z,23.47
2018-12-18T11:17:52.523Z,24.80
2018-12-18T11:20:20.619Z,22.73
2018-12-18T11:22:48.816Z,25.23
2018-12-18T11:25:17.071Z,23.57
2018-12-18T11:27:45.371Z,22.20
2018-12-18T11:30:13.593Z,25.67
2018-12-18T11:32:41.817Z,22.10
2018-12-18T11:35:10.104Z,23.30
2018-12-18T11:37:38.396Z,23.17
2018-12-18T11:40:07.183Z,22.30
2018-12-18T11:42:35.371Z,24.80
2018-12-18T11:45:03.605Z,23.10
2018-12-18T11:47:31.977Z,22.80
2018-12-18T11:50:00.277Z,21.60
2018-12-18T11:52:28.488Z,22.30
2018-12-18T11:54:56.585Z,24.00
2018-12-18T11:57:24.922Z,23.60
2018-12-18T11:59:53.113Z,22.50
2018-12-18T12:02:21.355Z,22.87
2018-12-18T12:04:49.676Z,22.93
2018-12-18T12:07:17.903Z,22.80
2018-12-18T12:09:46.039Z,22.70
2018-12-18T12:12:14.206Z,21.33
2018-12-18T12:14:42.696Z,22.37
2018-12-18T12:17:11.000Z,22.20
2018-12-18T12:19:39.190Z,21.80
2018-12-18T12:22:07.402Z,23.43
2018-12-18T12:24:35.631Z,21.80
2018-12-18T12:27:09.187Z,22.93
2018-12-18T12:29:37.367Z,22.67
2018-12-18T12:32:05.688Z,21.93
2018-12-18T12:34:33.892Z,21.70
2018-12-18T12:37:02.237Z,22.10
2018-12-18T12:39:30.699Z,23.33
2018-12-18T12:41:58.898Z,23.00
2018-12-18T12:44:27.111Z,22.10
2018-12-18T12:46:55.368Z,21.60
2018-12-18T12:49:27.891Z,22.47
2018-12-18T12:51:57.533Z,22.50
2018-12-18T12:54:25.788Z,22.90
2018-12-18T12:56:54.215Z,24.00
2018-12-18T12:59:22.481Z,24.30
2018-12-18T13:01:50.758Z,23.60
2018-12-18T13:04:18.954Z,22.40
2018-12-18T13:06:47.231Z,24.00
2018-12-18T13:09:16.152Z,23.47
2018-12-18T13:11:44.425Z,24.83
2018-12-18T13:14:12.674Z,23.23
2018-12-18T13:16:40.922Z,23.60
2018-12-18T13:19:09.193Z,23.93
2018-12-18T13:21:37.415Z,22.90
2018-12-18T13:24:05.669Z,24.57
2018-12-18T13:26:33.925Z,24.30
2018-12-18T13:29:02.160Z,23.30
2018-12-18T13:31:30.579Z,23.80
2018-12-18T13:33:58.770Z,23.17
2018-12-18T13:36:27.033Z,22.90
2018-12-18T13:38:55.228Z,21.43
2018-12-18T13:41:23.504Z,23.13
2018-12-18T13:43:51.683Z,23.00
2018-12-18T13:46:19.959Z,21.10
2018-12-18T13:48:48.246Z,23.20
2018-12-18T13:51:16.530Z,22.60
2018-12-18T13:53:44.748Z,21.90
2018-12-18T13:56:13.030Z,21.50
2018-12-18T13:58:41.105Z,23.63
2018-12-18T14:01:09.377Z,22.50
2018-12-18T14:03:37.602Z,20.57
2018-12-18T14:06:05.812Z,23.73
2018-12-18T14:08:33.991Z,23.33
2018-12-18T14:11:02.312Z,26.60
2018-12-18T14:13:30.754Z,28.40
2018-12-18T14:15:59.036Z,29.20
2018-12-18T14:18:27.294Z,27.43
2018-12-18T14:20:55.598Z,28.43
2018-12-18T14:23:23.732Z,28.83
2018-12-18T14:25:52.048Z,28.17
2018-12-18T14:28:20.252Z,31.10
2018-12-18T14:30:48.483Z,31.90
2018-12-18T14:33:16.651Z,31.63
2018-12-18T14:35:44.870Z,29.50
2018-12-18T14:38:13.191Z,30.40
2018-12-18T14:40:41.423Z,29.93
2018-12-18T14:43:09.748Z,27.10
2018-12-18T14:45:37.970Z,29.30
2018-12-18T14:48:06.408Z,29.20
2018-12-18T14:50:34.734Z,27.30
2018-12-18T14:53:03.069Z,29.30
2018-12-18T14:55:31.492Z,28.60
2018-12-18T14:57:59.823Z,29.17
2018-12-18T15:00:28.112Z,28.98
2018-12-18T15:02:56.312Z,29.18
2018-12-18T15:05:24.682Z,28.20
2018-12-18T15:07:52.773Z,25.72
2018-12-18T15:10:21.130Z,30.43
2018-12-18T15:12:49.454Z,28.30
2018-12-18T15:15:18.449Z,28.30
2018-12-18T15:17:46.757Z,27.15
2018-12-18T15:20:15.269Z,29.55
2018-12-18T15:22:43.617Z,30.25
2018-12-18T15:25:11.883Z,29.18
2018-12-18T15:27:40.149Z,29.77
2018-12-18T15:30:09.541Z,28.98
2018-12-18T15:32:38.051Z,29.80
2018-12-18T15:35:06.425Z,28.42
2018-12-18T15:37:34.933Z,28.30
2018-12-18T15:40:06.025Z,29.27
2018-12-18T15:42:34.912Z,26.87
2018-12-18T15:45:03.291Z,27.75
2018-12-18T15:47:32.422Z,26.00
2018-12-18T15:50:00.770Z,30.72
2018-12-18T15:52:29.219Z,26.50
2018-12-18T15:54:57.341Z,28.62
2018-12-18T15:57:25.617Z,26.35
2018-12-18T15:59:53.956Z,31.55
2018-12-18T16:02:24.369Z,28.05
2018-12-18T16:04:53.084Z,25.82
2018-12-18T16:07:21.454Z,24.57
2018-12-18T16:09:49.765Z,35.40
2018-12-18T16:12:18.134Z,28.80
2018-12-18T16:14:46.530Z,28.45
2018-12-18T16:17:14.770Z,27.80
2018-12-18T16:19:43.045Z,23.52
2018-12-18T16:22:11.318Z,26.05
2018-12-18T16:24:39.582Z,26.33
2018-12-18T16:27:07.939Z,28.17
2018-12-18T16:29:36.201Z,26.55
2018-12-18T16:32:04.432Z,28.07
2018-12-18T16:34:32.758Z,24.30
2018-12-18T16:37:01.143Z,26.65
2018-12-18T16:39:29.606Z,25.37
2018-12-18T16:41:58.377Z,25.27
2018-12-18T16:44:26.734Z,25.10
2018-12-18T16:46:54.970Z,27.77
2018-12-18T16:49:23.399Z,25.43
2018-12-18T16:51:51.627Z,28.07
2018-12-18T16:54:20.067Z,29.72
2018-12-18T16:56:48.730Z,26.65
2018-12-18T16:59:17.062Z,28.98
2018-12-18T17:01:45.488Z,23.12
2018-12-18T17:04:13.828Z,28.17
2018-12-18T17:06:42.276Z,24.45
2018-12-18T17:09:10.594Z,22.75
2018-12-18T17:11:38.773Z,24.15
2018-12-18T17:14:07.701Z,26.00
2018-12-18T17:16:39.051Z,24.45
2018-12-18T17:19:07.421Z,24.72
2018-12-18T17:21:36.407Z,26.30
2018-12-18T17:24:04.805Z,24.63
2018-12-18T17:26:33.063Z,25.23
2018-12-18T17:29:02.082Z,23.40
2018-12-18T17:31:30.743Z,26.42
2018-12-18T17:33:59.128Z,25.15
2018-12-18T17:36:27.382Z,26.60
2018-12-18T17:38:55.683Z,25.20
2018-12-18T17:41:24.099Z,23.98
2018-12-18T17:43:52.719Z,25.00
2018-12-18T17:46:20.914Z,24.75
2018-12-18T17:48:49.256Z,26.75
2018-12-18T17:51:17.561Z,28.50
2018-12-18T17:53:45.777Z,26.55
2018-12-18T17:56:14.999Z,25.70
2018-12-18T17:58:43.360Z,28.02
2018-12-18T18:01:11.619Z,28.65
2018-12-18T18:03:40.048Z,27.58
2018-12-18T18:06:08.315Z,26.95
2018-12-18T18:08:36.537Z,26.62
2018-12-18T18:11:05.101Z,27.30
2018-12-18T18:13:33.343Z,27.00
2018-12-18T18:16:01.691Z,28.45
2018-12-18T18:18:30.597Z,29.20
2018-12-18T18:20:58.937Z,30.17
2018-12-18T18:23:27.224Z,26.77
2018-12-18T18:25:55.820Z,28.90
2018-12-18T18:28:24.095Z,25.80
2018-12-18T18:30:52.474Z,25.80
2018-12-18T18:33:20.864Z,27.42
2018-12-18T18:35:49.279Z,28.02
2018-12-18T18:38:17.644Z,24.80
2018-12-18T18:40:45.939Z,25.02
2018-12-18T18:43:14.193Z,23.98
2018-12-18T18:45:42.421Z,27.13
2018-12-18T18:48:10.889Z,25.02
2018-12-18T18:50:39.128Z,22.95
2018-12-18T18:53:07.468Z,25.52
2018-12-18T18:55:35.864Z,23.95
2018-12-18T18:58:04.183Z,24.65
2018-12-18T19:00:32.514Z,25.65
2018-12-18T19:03:01.017Z,23.85
2018-12-18T19:05:29.358Z,23.65
2018-12-18T19:07:58.474Z,26.65
2018-12-18T19:10:26.800Z,24.18
2018-12-18T19:12:59.171Z,23.87
2018-12-18T19:15:27.426Z,22.65
2018-12-18T19:17:55.744Z,23.45
2018-12-18T19:20:23.996Z,22.07
2018-12-18T19:22:52.329Z,23.75
2018-12-18T19:25:20.687Z,23.47
2018-12-18T19:27:49.116Z,23.15
2018-12-18T19:30:17.439Z,26.82
2018-12-18T19:32:46.943Z,24.75
2018-12-18T19:35:15.414Z,23.15
2018-12-18T19:37:43.708Z,23.62
2018-12-18T19:40:12.062Z,22.45
2018-12-18T19:42:40.410Z,22.10
2018-12-18T19:45:08.802Z,23.87
2018-12-18T19:47:37.048Z,22.75
2018-12-18T19:50:05.675Z,25.72
2018-12-18T19:52:33.983Z,23.10
2018-12-18T19:55:02.466Z,24.15
2018-12-18T19:57:30.879Z,22.30
2018-12-18T19:59:59.299Z,22.77
2018-12-18T20:02:27.498Z,21.50
2018-12-18T20:04:55.956Z,28.02
2018-12-18T20:07:24.192Z,19.82
2018-12-18T20:09:52.535Z,24.18
2018-12-18T20:12:21.033Z,20.23
2018-12-18T20:14:49.457Z,21.27
2018-12-18T20:17:17.989Z,22.35
2018-12-18T20:19:46.420Z,25.40
2018-12-18T20:22:14.774Z,22.58
2018-12-18T20:24:43.076Z,22.67
2018-12-18T20:27:11.357Z,21.00
2018-12-18T20:29:40.061Z,24.15
2018-12-18T20:32:08.706Z,21.27
2018-12-18T20:34:37.009Z,23.00
2018-12-18T20:37:05.297Z,24.60
2018-12-18T20:39:33.587Z,24.57
2018-12-18T20:42:02.036Z,20.80
2018-12-18T20:44:30.926Z,23.18
2018-12-18T20:46:59.215Z,22.82
2018-12-18T20:49:27.439Z,22.82
2018-12-18T20:51:55.807Z,21.87
2018-12-18T20:54:24.014Z,20.57
2018-12-18T20:56:52.258Z,21.07
2018-12-18T20:59:20.367Z,23.90
2018-12-18T21:01:48.727Z,22.10
2018-12-18T21:04:17.143Z,20.43
2018-12-18T21:06:45.445Z,21.30
2018-12-18T21:09:13.751Z,19.67
2018-12-18T21:11:42.111Z,20.45
2018-12-18T21:14:11.492Z,21.70
2018-12-18T21:16:40.182Z,26.00
2018-12-18T21:19:08.816Z,22.32
2018-12-18T21:21:37.707Z,23.67
2018-12-18T21:24:07.333Z,20.85
2018-12-18T21:26:35.803Z,22.05
2018-12-18T21:29:05.119Z,21.42
2018-12-18T21:31:33.504Z,23.00
2018-12-18T21:34:01.843Z,18.52
2018-12-18T21:36:30.490Z,18.35
2018-12-18T21:38:58.807Z,20.95
2018-12-18T21:41:27.060Z,21.93
2018-12-18T21:43:55.264Z,21.62
2018-12-18T21:46:23.500Z,21.05
2018-12-18T21:48:51.866Z,22.25
2018-12-18T21:51:20.027Z,18.95
2018-12-18T21:53:48.375Z,20.27
2018-12-18T21:56:16.807Z,20.57
2018-12-18T21:58:45.251Z,23.67
2018-12-18T22:01:13.922Z,20.62
2018-12-18T22:03:42.210Z,21.55
2018-12-18T22:06:10.547Z,20.10
2018-12-18T22:08:38.671Z,20.10
2018-12-18T22:11:06.892Z,19.75
2018-12-18T22:13:35.160Z,17.77
2018-12-18T22:16:03.472Z,21.65
2018-12-18T22:18:31.923Z,20.15
2018-12-18T22:21:00.245Z,20.30
2018-12-18T22:23:28.450Z,19.48
2018-12-18T22:25:56.803Z,20.80
2018-12-18T22:28:25.107Z,18.45
2018-12-18T22:30:53.334Z,21.65
2018-12-18T22:33:23.988Z,20.65
2018-12-18T22:35:52.411Z,21.85
2018-12-18T22:38:21.541Z,20.57
2018-12-18T22:40:50.058Z,21.93
2018-12-18T22:43:18.271Z,21.05
2018-12-18T22:45:46.617Z,19.52
2018-12-18T22:48:14.995Z,18.05
2018-12-18T22:50:43.323Z,18.05
2018-12-18T22:53:11.644Z,18.82
2018-12-18T22:55:44.843Z,22.58
2018-12-18T22:58:10.542Z,22.85
2018-12-18T23:00:44.421Z,18.30
2018-12-18T23:03:12.547Z,23.40
2018-12-18T23:05:40.924Z,18.80
2018-12-18T23:08:09.230Z,19.90
2018-12-18T23:10:37.726Z,18.02
2018-12-18T23:13:05.916Z,16.02
2018-12-18T23:15:34.356Z,17.48
2018-12-18T23:18:02.711Z,19.10
2018-12-18T23:20:31.367Z,18.05
2018-12-18T23:22:59.551Z,18.87
2018-12-18T23:25:27.863Z,17.12
2018-12-18T23:27:56.217Z,18.25
2018-12-18T23:30:24.607Z,17.42
2018-12-18T23:32:52.887Z,14.20
2018-12-18T23:35:21.161Z,19.95
2018-12-18T23:37:49.502Z,18.48
2018-12-18T23:40:17.915Z,20.37
2018-12-18T23:42:46.194Z,15.95
2018-12-18T23:45:14.668Z,20.60
2018-12-18T23:47:42.851Z,20.92
2018-12-18T23:50:11.186Z,18.60
2018-12-18T23:52:39.371Z,18.80
2018-12-18T23:55:07.690Z,18.52
2018-12-18T23:57:36.476Z,16.17
